Time,TemperatureF,DewpointF,PressureIn,WindDirection,WindDirectionDegrees,WindSpeedMPH,WindSpeedGustMPH,Humidity,HourlyPrecipIn,Conditions,Clouds,dailyrainin,SoftwareType,DateUTC
2013-05-30 00:02:00,65.3,64.1,29.72,ENE,66,0.0,3.0,96,0.05,,,0.00,VWS V14.01,2013-05-30 05:02:00,
2013-05-30 00:07:00,65.2,64.3,29.72,ENE,66,0.0,3.0,97,0.06,,,0.01,VWS V14.01,2013-05-30 05:07:00,
2013-05-30 00:12:00,65.0,64.4,29.72,ENE,66,0.0,3.0,98,0.06,,,0.01,VWS V14.01,2013-05-30 05:12:00,
2013-05-30 00:17:00,64.8,64.2,29.73,ENE,69,0.0,3.0,98,0.06,,,0.01,VWS V14.01,2013-05-30 05:17:00,
2013-05-30 00:22:00,64.8,64.2,29.73,ENE,62,0.0,3.0,98,0.07,,,0.02,VWS V14.01,2013-05-30 05:22:00,
2013-05-30 00:27:00,64.8,64.2,29.73,ENE,62,0.0,3.0,98,0.07,,,0.02,VWS V14.01,2013-05-30 05:27:00,
2013-05-30 00:32:00,64.7,64.1,29.75,ENE,62,0.0,3.0,98,0.07,,,0.02,VWS V14.01,2013-05-30 05:32:00,
2013-05-30 00:37:00,64.8,64.5,29.75,ENE,66,0.0,3.0,99,0.08,,,0.03,VWS V14.01,2013-05-30 05:37:00,
2013-05-30 00:42:00,64.7,64.4,29.75,ENE,66,0.0,3.0,99,0.08,,,0.03,VWS V14.01,2013-05-30 05:42:00,
2013-05-30 00:47:00,64.7,64.4,29.75,ENE,66,0.0,3.0,99,0.08,,,0.03,VWS V14.01,2013-05-30 05:47:00,
2013-05-30 00:52:00,64.5,64.2,29.75,ENE,66,0.0,3.0,99,0.09,,,0.04,VWS V14.01,2013-05-30 05:52:00,
2013-05-30 00:57:00,64.5,64.5,29.75,ENE,66,0.0,5.0,100,0.09,,,0.04,VWS V14.01,2013-05-30 05:57:00,
2013-05-30 01:02:00,64.7,64.7,29.75,ENE,64,0.0,0.0,100,0.04,,,0.04,VWS V14.01,2013-05-30 06:02:00,
2013-05-30 01:07:00,64.7,64.7,29.75,ENE,64,0.0,1.0,100,0.05,,,0.05,VWS V14.01,2013-05-30 06:07:00,
2013-05-30 01:12:00,64.7,64.7,29.75,ENE,64,0.0,1.0,100,0.05,,,0.05,VWS V14.01,2013-05-30 06:12:00,
2013-05-30 01:18:00,64.7,64.7,29.76,ENE,64,0.0,1.0,100,0.05,,,0.05,VWS V14.01,2013-05-30 06:18:00,
2013-05-30 01:23:00,64.8,64.8,29.76,ENE,69,0.0,5.0,100,0.05,,,0.05,VWS V14.01,2013-05-30 06:23:00,
2013-05-30 01:28:00,64.8,64.8,29.76,ENE,72,0.0,5.0,100,0.06,,,0.06,VWS V14.01,2013-05-30 06:28:00,
2013-05-30 01:33:00,64.8,64.8,29.77,WNW,291,0.0,5.0,100,0.06,,,0.06,VWS V14.01,2013-05-30 06:33:00,
2013-05-30 01:38:00,64.8,64.8,29.77,WNW,291,0.0,5.0,100,0.06,,,0.06,VWS V14.01,2013-05-30 06:38:00,
2013-05-30 01:43:00,65.0,65.0,29.77,WNW,291,0.0,5.0,100,0.06,,,0.06,VWS V14.01,2013-05-30 06:43:00,
2013-05-30 01:48:00,65.0,65.0,29.76,WNW,291,0.0,5.0,100,0.07,,,0.07,VWS V14.01,2013-05-30 06:48:00,
2013-05-30 01:53:00,65.2,65.2,29.76,WNW,291,0.0,5.0,100,0.07,,,0.07,VWS V14.01,2013-05-30 06:53:00,
2013-05-30 01:59:00,65.2,65.2,29.76,WNW,291,0.0,5.0,100,0.07,,,0.07,VWS V14.01,2013-05-30 06:59:00,
2013-05-30 02:00:00,65.3,65.3,29.73,WNW,291,0.0,5.0,100,0.07,,OVC041CB,0.07,VWS V14.01,2013-05-30 07:00:00,
2013-05-30 02:04:00,65.3,65.3,29.73,WNW,291,0.0,0.0,100,0.03,,,0.07,VWS V14.01,2013-05-30 07:04:00,
2013-05-30 02:09:00,65.3,65.3,29.73,NW,318,1.0,2.0,100,0.03,,,0.07,VWS V14.01,2013-05-30 07:09:00,
2013-05-30 02:14:00,65.2,65.2,29.72,North,0,0.0,5.0,100,0.04,,,0.08,VWS V14.01,2013-05-30 07:14:00,
2013-05-30 02:19:00,65.2,65.2,29.72,West,270,0.0,5.0,100,0.04,,,0.08,VWS V14.01,2013-05-30 07:19:00,
2013-05-30 02:24:00,65.2,65.2,29.72,West,270,0.0,5.0,100,0.04,,,0.08,VWS V14.01,2013-05-30 07:24:00,
2013-05-30 02:29:00,65.2,65.2,29.74,West,270,0.0,5.0,100,0.04,,,0.08,VWS V14.01,2013-05-30 07:29:00,
2013-05-30 02:34:00,65.2,65.2,29.74,West,270,0.0,5.0,100,0.04,,,0.08,VWS V14.01,2013-05-30 07:34:00,
2013-05-30 02:39:00,65.0,65.0,29.74,West,270,0.0,5.0,100,0.05,,,0.09,VWS V14.01,2013-05-30 07:39:00,
2013-05-30 02:44:00,65.0,65.0,29.75,West,271,0.0,5.0,100,0.05,,,0.09,VWS V14.01,2013-05-30 07:44:00,
2013-05-30 02:49:00,65.0,65.0,29.75,West,271,0.0,5.0,100,0.05,,,0.09,VWS V14.01,2013-05-30 07:49:00,
2013-05-30 02:54:00,65.0,65.0,29.75,West,271,0.0,5.0,100,0.05,,,0.09,VWS V14.01,2013-05-30 07:54:00,
2013-05-30 03:00:00,65.0,65.0,29.73,North,0,0.0,5.0,100,0.05,,,0.09,VWS V14.01,2013-05-30 08:00:00,
2013-05-30 03:05:00,65.0,65.0,29.73,ENE,62,0.0,3.0,100,0.02,,,0.09,VWS V14.01,2013-05-30 08:05:00,
2013-05-30 03:10:00,64.8,64.8,29.73,East,79,2.0,7.0,100,0.02,,,0.09,VWS V14.01,2013-05-30 08:10:00,
2013-05-30 03:15:00,64.8,64.8,29.71,ENE,65,0.0,7.0,100,0.02,,,0.09,VWS V14.01,2013-05-30 08:15:00,
2013-05-30 03:20:00,64.8,64.8,29.71,East,92,0.0,7.0,100,0.03,,,0.10,VWS V14.01,2013-05-30 08:20:00,
2013-05-30 03:25:00,64.8,64.8,29.71,East,83,0.0,7.0,100,0.03,,,0.10,VWS V14.01,2013-05-30 08:25:00,
2013-05-30 03:30:00,64.7,64.7,29.72,ESE,109,2.0,7.0,100,0.03,,,0.10,VWS V14.01,2013-05-30 08:30:00,
2013-05-30 03:35:00,64.7,64.7,29.72,WNW,282,0.0,7.0,100,0.03,,,0.10,VWS V14.01,2013-05-30 08:35:00,
2013-05-30 03:40:00,64.7,64.7,29.72,NE,45,5.0,7.0,100,0.03,,,0.10,VWS V14.01,2013-05-30 08:40:00,
2013-05-30 03:45:00,64.5,64.5,29.71,East,100,1.0,8.0,100,0.03,,,0.10,VWS V14.01,2013-05-30 08:45:00,
2013-05-30 03:50:00,64.3,64.3,29.71,NE,51,2.0,8.0,100,0.03,,,0.10,VWS V14.01,2013-05-30 08:50:00,
2013-05-30 03:55:00,64.0,64.0,29.71,NE,54,2.0,8.0,100,0.03,,,0.10,VWS V14.01,2013-05-30 08:55:00,
2013-05-30 04:00:00,63.7,63.7,29.70,NE,56,6.0,8.0,100,0.02,,,0.11,VWS V14.01,2013-05-30 09:00:00,
2013-05-30 04:05:00,63.7,63.7,29.70,SW,219,5.0,8.0,100,0.02,,,0.11,VWS V14.01,2013-05-30 09:05:00,
2013-05-30 04:10:00,63.7,63.7,29.70,East,85,2.0,8.0,100,0.02,,,0.11,VWS V14.01,2013-05-30 09:10:00,
2013-05-30 04:15:00,63.9,63.9,29.68,East,99,11.0,13.0,100,0.02,,,0.11,VWS V14.01,2013-05-30 09:15:00,
2013-05-30 04:20:00,63.7,63.7,29.68,SE,126,10.0,14.0,100,0.02,,,0.11,VWS V14.01,2013-05-30 09:20:00,
2013-05-30 04:26:00,63.7,63.7,29.68,ENE,76,14.0,16.0,100,0.02,,,0.11,VWS V14.01,2013-05-30 09:26:00,
2013-05-30 04:31:00,63.7,63.4,29.68,ENE,61,10.0,16.0,99,0.02,,,0.11,VWS V14.01,2013-05-30 09:31:00,
2013-05-30 04:36:00,63.7,63.4,29.68,East,85,5.0,16.0,99,0.02,,,0.11,VWS V14.01,2013-05-30 09:36:00,
2013-05-30 04:41:00,63.9,63.9,29.68,East,80,7.0,16.0,100,0.02,,,0.11,VWS V14.01,2013-05-30 09:41:00,
2013-05-30 04:46:00,63.9,63.9,29.68,NE,52,7.0,16.0,100,0.02,,,0.11,VWS V14.01,2013-05-30 09:46:00,
2013-05-30 04:51:00,63.9,63.9,29.68,ESE,116,11.0,16.0,100,0.02,,,0.11,VWS V14.01,2013-05-30 09:51:00,
2013-05-30 04:56:00,64.0,64.0,29.68,SE,137,7.0,16.0,100,0.03,,,0.12,VWS V14.01,2013-05-30 09:56:00,
2013-05-30 05:01:00,64.2,63.9,29.68,East,86,7.0,12.0,99,0.01,,,0.12,VWS V14.01,2013-05-30 10:01:00,
2013-05-30 05:06:00,64.5,64.5,29.68,ESE,109,7.0,12.0,100,0.01,,,0.12,VWS V14.01,2013-05-30 10:06:00,
2013-05-30 05:11:00,64.7,64.4,29.68,ENE,69,7.0,14.0,99,0.01,,,0.12,VWS V14.01,2013-05-30 10:11:00,
2013-05-30 05:16:00,64.8,64.2,29.69,ESE,106,7.0,17.0,98,0.01,,,0.12,VWS V14.01,2013-05-30 10:16:00,
2013-05-30 05:21:00,65.2,64.3,29.69,SE,133,5.0,17.0,97,0.01,,,0.12,VWS V14.01,2013-05-30 10:21:00,
2013-05-30 05:26:00,65.3,64.7,29.69,SSE,164,10.0,17.0,98,0.01,,,0.12,VWS V14.01,2013-05-30 10:26:00,
2013-05-30 05:31:00,65.3,64.1,29.69,South,172,2.0,17.0,96,0.01,,,0.12,VWS V14.01,2013-05-30 10:31:00,
2013-05-30 05:36:00,65.5,64.9,29.69,South,191,5.0,17.0,98,0.01,,,0.12,VWS V14.01,2013-05-30 10:36:00,
2013-05-30 05:41:00,65.6,64.4,29.69,ESE,103,5.0,17.0,96,0.01,,,0.12,VWS V14.01,2013-05-30 10:41:00,
2013-05-30 05:46:00,65.6,64.7,29.70,ENE,64,0.0,17.0,97,0.01,,,0.12,VWS V14.01,2013-05-30 10:46:00,
2013-05-30 05:51:00,65.8,65.2,29.70,North,350,5.0,17.0,98,0.01,,,0.12,VWS V14.01,2013-05-30 10:51:00,
2013-05-30 05:56:00,66.0,65.1,29.70,ESE,112,10.0,17.0,97,0.01,,,0.12,VWS V14.01,2013-05-30 10:56:00,
2013-05-30 06:01:00,66.1,65.5,29.69,ESE,114,3.0,7.0,98,0.01,,-RA,0.13,VWS V14.01,2013-05-30 11:01:00,
2013-05-30 06:06:00,66.3,65.7,29.69,ESE,117,10.0,12.0,98,0.01,,-RA,0.13,VWS V14.01,2013-05-30 11:06:00,
2013-05-30 06:11:00,66.4,65.8,29.69,East,95,5.0,16.0,98,0.01,,-RA,0.13,VWS V14.01,2013-05-30 11:11:00,
2013-05-30 06:16:00,66.6,65.7,29.69,ENE,73,7.0,16.0,97,0.01,,-RA,0.13,VWS V14.01,2013-05-30 11:16:00,
2013-05-30 06:22:00,66.6,66.0,29.69,SE,138,3.0,17.0,98,0.01,,-RA,0.13,VWS V14.01,2013-05-30 11:22:00,
2013-05-30 06:27:00,66.8,66.5,29.69,SSW,208,7.0,17.0,99,0.01,,-RA,0.13,VWS V14.01,2013-05-30 11:27:00,
2013-05-30 06:32:00,66.8,66.5,29.69,SSE,161,5.0,17.0,99,0.01,,-RA,0.13,VWS V14.01,2013-05-30 11:32:00,
2013-05-30 06:37:00,66.9,66.6,29.69,South,179,8.0,17.0,99,0.01,,-RA,0.13,VWS V14.01,2013-05-30 11:37:00,
2013-05-30 06:42:00,67.1,65.9,29.69,ESE,104,3.0,17.0,96,0.01,,-RA,0.13,VWS V14.01,2013-05-30 11:42:00,
2013-05-30 06:47:00,67.1,65.9,29.69,East,82,2.0,17.0,96,0.01,,-RA,0.13,VWS V14.01,2013-05-30 11:47:00,
2013-05-30 06:52:00,67.1,65.9,29.69,SW,236,3.0,17.0,96,0.01,,-RA,0.13,VWS V14.01,2013-05-30 11:52:00,
2013-05-30 06:57:00,67.3,66.4,29.69,South,186,7.0,17.0,97,0.01,,-RA,0.13,VWS V14.01,2013-05-30 11:57:00,
2013-05-30 07:02:00,67.3,66.1,29.68,ESE,103,5.0,11.0,96,0.00,,OVC024,0.13,VWS V14.01,2013-05-30 12:02:00,
2013-05-30 07:07:00,67.3,66.4,29.68,SE,127,7.0,14.0,97,0.00,,OVC024,0.13,VWS V14.01,2013-05-30 12:07:00,
2013-05-30 07:12:00,67.4,66.5,29.68,SSE,147,10.0,14.0,97,0.00,,OVC024,0.13,VWS V14.01,2013-05-30 12:12:00,
2013-05-30 07:17:00,67.6,67.0,29.69,East,99,7.0,17.0,98,0.00,,OVC024,0.13,VWS V14.01,2013-05-30 12:17:00,
2013-05-30 07:22:00,67.8,66.9,29.69,East,88,3.0,17.0,97,0.01,,OVC024,0.14,VWS V14.01,2013-05-30 12:22:00,
2013-05-30 07:27:00,67.9,67.0,29.69,SSW,200,2.0,17.0,97,0.01,,OVC024,0.14,VWS V14.01,2013-05-30 12:27:00,
2013-05-30 07:32:00,68.3,67.4,29.69,ESE,102,2.0,17.0,97,0.01,,OVC024,0.14,VWS V14.01,2013-05-30 12:32:00,
2013-05-30 07:37:00,68.4,67.2,29.69,NE,40,0.0,17.0,96,0.01,,OVC024,0.14,VWS V14.01,2013-05-30 12:37:00,
2013-05-30 07:42:00,68.8,68.2,29.69,SSE,151,0.0,17.0,98,0.01,,OVC024,0.14,VWS V14.01,2013-05-30 12:42:00,
2013-05-30 07:47:00,69.1,67.9,29.69,ENE,78,2.0,17.0,96,0.01,,OVC024,0.14,VWS V14.01,2013-05-30 12:47:00,
2013-05-30 07:52:00,69.4,68.2,29.69,SE,138,3.0,17.0,96,0.01,,OVC024,0.14,VWS V14.01,2013-05-30 12:52:00,
2013-05-30 07:57:00,69.4,68.2,29.69,NNE,20,7.0,17.0,96,0.01,,OVC024,0.14,VWS V14.01,2013-05-30 12:57:00,
2013-05-30 08:02:00,69.6,68.1,29.70,SSW,202,2.0,7.0,95,0.01,,OVC046,0.14,VWS V14.01,2013-05-30 13:02:00,
2013-05-30 08:07:00,69.6,68.1,29.70,ENE,66,1.0,8.0,95,0.01,,OVC046,0.14,VWS V14.01,2013-05-30 13:07:00,
2013-05-30 08:12:00,69.8,68.6,29.70,ESE,102,3.0,8.0,96,0.01,,OVC046,0.14,VWS V14.01,2013-05-30 13:12:00,
2013-05-30 08:18:00,69.9,68.7,29.71,NNE,32,2.0,12.0,96,0.01,,OVC046,0.14,VWS V14.01,2013-05-30 13:18:00,
2013-05-30 08:23:00,70.1,68.6,29.71,NE,49,5.0,12.0,95,0.01,,OVC046,0.14,VWS V14.01,2013-05-30 13:23:00,
2013-05-30 08:28:00,70.4,68.9,29.71,South,175,0.0,12.0,95,0.01,,OVC046,0.14,VWS V14.01,2013-05-30 13:28:00,
2013-05-30 08:33:00,70.8,69.0,29.71,South,171,2.0,12.0,94,0.01,,OVC046,0.14,VWS V14.01,2013-05-30 13:33:00,
2013-05-30 08:38:00,71.1,68.7,29.71,SW,217,0.0,12.0,92,0.01,,OVC046,0.14,VWS V14.01,2013-05-30 13:38:00,
2013-05-30 08:43:00,71.6,68.8,29.71,SW,220,10.0,12.0,91,0.01,,OVC046,0.14,VWS V14.01,2013-05-30 13:43:00,
2013-05-30 08:48:00,72.0,68.9,29.70,SSE,155,7.0,12.0,90,0.02,,OVC046,0.15,VWS V14.01,2013-05-30 13:48:00,
2013-05-30 08:53:00,72.3,68.2,29.70,South,176,5.0,12.0,87,0.02,,OVC046,0.15,VWS V14.01,2013-05-30 13:53:00,
2013-05-30 08:58:00,72.3,68.6,29.70,ESE,113,5.0,12.0,88,0.02,,OVC046,0.15,VWS V14.01,2013-05-30 13:58:00,
2013-05-30 09:00:00,72.5,68.8,29.71,ENE,78,2.0,14.0,88,0.02,,OVC041CB,0.15,VWS V14.01,2013-05-30 14:00:00,
2013-05-30 09:03:00,72.5,69.1,29.71,SE,128,2.0,10.0,89,0.01,,OVC037,0.15,VWS V14.01,2013-05-30 14:03:00,
2013-05-30 09:08:00,72.5,68.4,29.71,ESE,104,2.0,10.0,87,0.01,,OVC037,0.15,VWS V14.01,2013-05-30 14:08:00,
2013-05-30 09:13:00,72.7,68.6,29.71,East,93,10.0,13.0,87,0.01,,OVC037,0.15,VWS V14.01,2013-05-30 14:13:00,
2013-05-30 09:18:00,72.8,68.7,29.72,SW,215,2.0,13.0,87,0.01,,OVC037,0.15,VWS V14.01,2013-05-30 14:18:00,
2013-05-30 09:23:00,72.8,68.4,29.72,SE,138,2.0,13.0,86,0.01,,OVC037,0.15,VWS V14.01,2013-05-30 14:23:00,
2013-05-30 09:28:00,72.8,68.0,29.72,SE,140,2.0,13.0,85,0.01,,OVC037,0.15,VWS V14.01,2013-05-30 14:28:00,
2013-05-30 09:33:00,73.0,67.9,29.72,SSE,155,7.0,13.0,84,0.01,,OVC037,0.15,VWS V14.01,2013-05-30 14:33:00,
2013-05-30 09:38:00,73.2,67.7,29.72,East,86,6.0,13.0,83,0.01,,OVC037,0.15,VWS V14.01,2013-05-30 14:38:00,
2013-05-30 09:43:00,73.3,68.5,29.72,East,95,1.0,13.0,85,0.01,,OVC037,0.15,VWS V14.01,2013-05-30 14:43:00,
2013-05-30 09:48:00,73.5,68.4,29.73,South,179,2.0,14.0,84,0.01,,OVC037,0.15,VWS V14.01,2013-05-30 14:48:00,
2013-05-30 09:53:00,73.5,68.0,29.73,SE,131,2.0,14.0,83,0.01,,OVC037,0.15,VWS V14.01,2013-05-30 14:53:00,
2013-05-30 09:59:00,73.7,68.2,29.73,SW,222,6.0,14.0,83,0.01,,OVC037,0.15,VWS V14.01,2013-05-30 14:59:00,
2013-05-30 10:04:00,73.9,68.1,29.73,ESE,123,2.0,8.0,82,0.00,,-RA,0.15,VWS V14.01,2013-05-30 15:04:00,
2013-05-30 10:09:00,74.0,67.8,29.73,ESE,104,3.0,12.0,81,0.00,,-RA,0.15,VWS V14.01,2013-05-30 15:09:00,
2013-05-30 10:14:00,74.0,67.8,29.73,South,186,1.0,14.0,81,0.00,,-RA,0.15,VWS V14.01,2013-05-30 15:14:00,
2013-05-30 10:19:00,74.0,67.8,29.73,ESE,120,6.0,17.0,81,0.00,,-RA,0.15,VWS V14.01,2013-05-30 15:19:00,
2013-05-30 10:24:00,74.0,67.4,29.73,South,175,7.0,17.0,80,0.00,,-RA,0.15,VWS V14.01,2013-05-30 15:24:00,
2013-05-30 10:29:00,74.2,68.0,29.73,SSW,203,7.0,20.0,81,0.00,,-RA,0.15,VWS V14.01,2013-05-30 15:29:00,
2013-05-30 10:34:00,74.9,68.7,29.72,SE,140,10.0,20.0,81,0.00,,-RA,0.15,VWS V14.01,2013-05-30 15:34:00,
2013-05-30 10:39:00,75.6,68.3,29.72,SW,229,5.0,20.0,78,0.00,,-RA,0.15,VWS V14.01,2013-05-30 15:39:00,
2013-05-30 10:44:00,75.4,68.4,29.71,ENE,58,2.0,21.0,79,0.00,,-RA,0.15,VWS V14.01,2013-05-30 15:44:00,
2013-05-30 10:49:00,75.3,68.7,29.71,SSW,195,6.0,21.0,80,0.00,,-RA,0.15,VWS V14.01,2013-05-30 15:49:00,
2013-05-30 10:54:00,75.3,68.3,29.71,SSW,210,11.0,21.0,79,0.00,,-RA,0.15,VWS V14.01,2013-05-30 15:54:00,
2013-05-30 10:59:00,75.3,68.0,29.71,SSW,192,7.0,21.0,78,0.01,,-RA,0.16,VWS V14.01,2013-05-30 15:59:00,
2013-05-30 11:04:00,75.4,68.1,29.71,South,191,10.0,17.0,78,0.01,,OVC047,0.16,VWS V14.01,2013-05-30 16:04:00,
2013-05-30 11:09:00,75.6,67.9,29.71,South,175,7.0,28.0,77,0.01,,OVC047,0.16,VWS V14.01,2013-05-30 16:09:00,
2013-05-30 11:14:00,75.8,68.5,29.71,SSE,168,7.0,28.0,78,0.01,,OVC047,0.16,VWS V14.01,2013-05-30 16:14:00,
2013-05-30 11:19:00,76.1,68.8,29.71,South,171,12.0,28.0,78,0.01,,OVC047,0.16,VWS V14.01,2013-05-30 16:19:00,
2013-05-30 11:24:00,76.1,67.6,29.71,SSW,209,12.0,28.0,75,0.01,,OVC047,0.16,VWS V14.01,2013-05-30 16:24:00,
2013-05-30 11:29:00,76.3,67.8,29.71,South,184,8.0,28.0,75,0.01,,OVC047,0.16,VWS V14.01,2013-05-30 16:29:00,
2013-05-30 11:34:00,76.3,67.8,29.71,SW,227,5.0,28.0,75,0.01,,OVC047,0.16,VWS V14.01,2013-05-30 16:34:00,
2013-05-30 11:40:00,76.5,68.0,29.71,ESE,117,10.0,28.0,75,0.01,,OVC047,0.16,VWS V14.01,2013-05-30 16:40:00,
2013-05-30 11:45:00,76.8,68.3,29.70,South,175,5.0,28.0,75,0.01,,OVC047,0.16,VWS V14.01,2013-05-30 16:45:00,
2013-05-30 11:50:00,77.0,68.5,29.70,ESE,110,5.0,28.0,75,0.01,,OVC047,0.16,VWS V14.01,2013-05-30 16:50:00,
2013-05-30 11:55:00,77.4,68.9,29.70,SSE,151,7.0,28.0,75,0.01,,OVC047,0.16,VWS V14.01,2013-05-30 16:55:00,
2013-05-30 12:00:00,77.2,69.1,29.70,ESE,104,5.0,28.0,76,0.01,,OVC047,0.16,VWS V14.01,2013-05-30 17:00:00,
2013-05-30 12:05:00,77.2,68.7,29.70,West,281,2.0,17.0,75,0.00,,SHRA,0.16,VWS V14.01,2013-05-30 17:05:00,
2013-05-30 12:10:00,77.2,68.7,29.70,SSE,154,2.0,19.0,75,0.00,,SHRA,0.16,VWS V14.01,2013-05-30 17:10:00,
2013-05-30 12:15:00,77.4,69.2,29.69,SSW,195,6.0,19.0,76,0.00,,SHRA,0.16,VWS V14.01,2013-05-30 17:15:00,
2013-05-30 12:20:00,77.2,69.1,29.69,SE,128,3.0,19.0,76,0.00,,SHRA,0.16,VWS V14.01,2013-05-30 17:20:00,
2013-05-30 12:25:00,77.2,68.7,29.69,South,171,12.0,19.0,75,0.00,,SHRA,0.16,VWS V14.01,2013-05-30 17:25:00,
2013-05-30 12:30:00,77.2,69.1,29.69,ENE,78,3.0,19.0,76,0.00,,SHRA,0.16,VWS V14.01,2013-05-30 17:30:00,
2013-05-30 12:35:00,77.2,69.8,29.69,SE,134,2.0,22.0,78,0.00,,SHRA,0.16,VWS V14.01,2013-05-30 17:35:00,
2013-05-30 12:40:00,77.2,69.4,29.69,SSE,148,6.0,22.0,77,0.00,,SHRA,0.16,VWS V14.01,2013-05-30 17:40:00,
2013-05-30 12:45:00,77.4,69.2,29.68,SSE,165,2.0,22.0,76,0.00,,SHRA,0.16,VWS V14.01,2013-05-30 17:45:00,
2013-05-30 12:50:00,77.4,70.4,29.68,South,175,5.0,22.0,79,0.00,,SHRA,0.16,VWS V14.01,2013-05-30 17:50:00,
2013-05-30 12:55:00,77.9,69.7,29.68,SSW,212,7.0,22.0,76,0.00,,SHRA,0.16,VWS V14.01,2013-05-30 17:55:00,
2013-05-30 13:00:00,78.3,69.7,29.68,SSW,206,10.0,13.0,75,0.00,,SHRA,0.16,VWS V14.01,2013-05-30 18:00:00,
2013-05-30 13:05:00,78.3,69.3,29.68,SSW,205,10.0,17.0,74,0.00,,SHRA,0.16,VWS V14.01,2013-05-30 18:05:00,
2013-05-30 13:10:00,78.1,69.9,29.68,SSE,162,7.0,17.0,76,0.00,,SHRA,0.16,VWS V14.01,2013-05-30 18:10:00,
2013-05-30 13:15:00,78.1,70.3,29.68,SSE,160,5.0,18.0,77,0.00,,SHRA,0.16,VWS V14.01,2013-05-30 18:15:00,
2013-05-30 13:21:00,78.1,70.7,29.68,SSW,203,5.0,20.0,78,0.00,,SHRA,0.16,VWS V14.01,2013-05-30 18:21:00,
2013-05-30 13:26:00,78.1,69.5,29.68,SSW,192,6.0,20.0,75,0.00,,SHRA,0.16,VWS V14.01,2013-05-30 18:26:00,
2013-05-30 13:31:00,78.1,70.3,29.68,SW,217,19.0,20.0,77,0.00,,SHRA,0.16,VWS V14.01,2013-05-30 18:31:00,
2013-05-30 13:36:00,78.3,70.5,29.68,ESE,113,3.0,20.0,77,0.00,,SHRA,0.16,VWS V14.01,2013-05-30 18:36:00,
2013-05-30 13:41:00,78.3,70.1,29.68,SSW,196,7.0,20.0,76,0.00,,SHRA,0.16,VWS V14.01,2013-05-30 18:41:00,
2013-05-30 13:46:00,78.3,70.1,29.68,SW,220,5.0,20.0,76,0.00,,SHRA,0.16,VWS V14.01,2013-05-30 18:46:00,
2013-05-30 13:51:00,78.3,71.3,29.68,SW,220,5.0,20.0,79,0.00,,SHRA,0.16,VWS V14.01,2013-05-30 18:51:00,
2013-05-30 13:56:00,78.3,70.1,29.68,SSE,167,13.0,20.0,76,0.00,,SHRA,0.16,VWS V14.01,2013-05-30 18:56:00,
2013-05-30 14:00:00,78.5,70.7,29.68,South,174,8.0,20.0,77,0.00,,OVC041CB,0.16,VWS V14.01,2013-05-30 19:00:00,
2013-05-30 14:01:00,78.5,70.7,29.68,SSW,210,8.0,8.0,77,0.00,,OVC037,0.16,VWS V14.01,2013-05-30 19:01:00,
2013-05-30 14:06:00,78.6,71.2,29.68,SSE,162,0.0,12.0,78,0.00,,OVC037,0.16,VWS V14.01,2013-05-30 19:06:00,
2013-05-30 14:11:00,78.8,71.0,29.68,SE,134,2.0,12.0,77,0.00,,OVC037,0.16,VWS V14.01,2013-05-30 19:11:00,
2013-05-30 14:16:00,79.0,71.6,29.68,SSW,198,7.0,13.0,78,0.00,,OVC037,0.16,VWS V14.01,2013-05-30 19:16:00,
2013-05-30 14:21:00,79.0,70.4,29.68,SW,224,5.0,17.0,75,0.00,,OVC037,0.16,VWS V14.01,2013-05-30 19:21:00,
2013-05-30 14:26:00,79.2,71.0,29.68,South,185,7.0,17.0,76,0.00,,OVC037,0.16,VWS V14.01,2013-05-30 19:26:00,
2013-05-30 14:31:00,79.2,70.6,29.68,SW,230,10.0,17.0,75,0.00,,OVC037,0.16,VWS V14.01,2013-05-30 19:31:00,
2013-05-30 14:36:00,79.4,71.2,29.68,South,184,5.0,17.0,76,0.00,,OVC037,0.16,VWS V14.01,2013-05-30 19:36:00,
2013-05-30 14:41:00,79.4,71.2,29.68,SSE,165,6.0,17.0,76,0.00,,OVC037,0.16,VWS V14.01,2013-05-30 19:41:00,
2013-05-30 14:46:00,79.6,71.4,29.67,SSE,147,2.0,17.0,76,0.00,,OVC037,0.16,VWS V14.01,2013-05-30 19:46:00,
2013-05-30 14:51:00,79.4,70.8,29.67,SW,222,5.0,17.0,75,0.00,,OVC037,0.16,VWS V14.01,2013-05-30 19:51:00,
2013-05-30 14:57:00,79.4,71.6,29.67,SE,131,3.0,17.0,77,0.00,,OVC037,0.16,VWS V14.01,2013-05-30 19:57:00,
2013-05-30 15:02:00,79.6,71.4,29.68,SSE,158,2.0,12.0,76,0.00,,BKN046,0.16,VWS V14.01,2013-05-30 20:02:00,
2013-05-30 15:07:00,79.9,72.4,29.68,SW,217,2.0,12.0,78,0.00,,BKN046,0.16,VWS V14.01,2013-05-30 20:07:00,
2013-05-30 15:12:00,80.1,71.9,29.68,ESE,106,0.0,12.0,76,0.00,,BKN046,0.16,VWS V14.01,2013-05-30 20:12:00,
2013-05-30 15:17:00,80.1,71.9,29.66,SSW,205,5.0,12.0,76,0.00,,BKN046,0.16,VWS V14.01,2013-05-30 20:17:00,
2013-05-30 15:22:00,80.5,71.5,29.66,South,171,10.0,14.0,74,0.00,,BKN046,0.16,VWS V14.01,2013-05-30 20:22:00,
2013-05-30 15:27:00,81.1,71.6,29.66,SW,226,19.0,24.0,73,0.00,,BKN046,0.16,VWS V14.01,2013-05-30 20:27:00,
2013-05-30 15:32:00,81.4,71.5,29.66,SSE,155,5.0,24.0,72,0.00,,BKN046,0.16,VWS V14.01,2013-05-30 20:32:00,
2013-05-30 15:37:00,82.0,71.7,29.66,SSW,198,7.0,24.0,71,0.00,,BKN046,0.16,VWS V14.01,2013-05-30 20:37:00,
2013-05-30 15:42:00,82.4,72.1,29.66,South,184,11.0,24.0,71,0.00,,BKN046,0.16,VWS V14.01,2013-05-30 20:42:00,
2013-05-30 15:47:00,83.0,71.8,29.66,SSW,206,5.0,24.0,69,0.00,,BKN046,0.16,VWS V14.01,2013-05-30 20:47:00,
2013-05-30 15:52:00,83.0,71.8,29.66,South,185,3.0,24.0,69,0.00,,BKN046,0.16,VWS V14.01,2013-05-30 20:52:00,
2013-05-30 15:57:00,82.4,72.1,29.66,South,178,7.0,24.0,71,0.00,,BKN046,0.16,VWS V14.01,2013-05-30 20:57:00,
2013-05-30 16:02:00,82.0,72.1,29.66,SW,216,1.0,12.0,72,0.00,,SHRA,0.16,VWS V14.01,2013-05-30 21:02:00,
2013-05-30 16:07:00,81.6,72.1,29.66,SW,224,0.0,12.0,73,0.00,,SHRA,0.16,VWS V14.01,2013-05-30 21:07:00,
2013-05-30 16:12:00,81.1,71.6,29.66,SSE,161,7.0,16.0,73,0.00,,SHRA,0.16,VWS V14.01,2013-05-30 21:12:00,
2013-05-30 16:18:00,80.5,71.5,29.67,South,185,14.0,16.0,74,0.00,,SHRA,0.16,VWS V14.01,2013-05-30 21:18:00,
2013-05-30 16:23:00,80.3,71.3,29.67,SSW,192,2.0,16.0,74,0.00,,SHRA,0.16,VWS V14.01,2013-05-30 21:23:00,
2013-05-30 16:28:00,80.1,71.5,29.67,South,182,0.0,16.0,75,0.00,,SHRA,0.16,VWS V14.01,2013-05-30 21:28:00,
2013-05-30 16:33:00,79.8,71.2,29.66,South,182,7.0,16.0,75,0.00,,SHRA,0.16,VWS V14.01,2013-05-30 21:33:00,
2013-05-30 16:38:00,79.6,71.4,29.66,SSW,193,1.0,17.0,76,0.00,,SHRA,0.16,VWS V14.01,2013-05-30 21:38:00,
2013-05-30 16:43:00,79.4,71.2,29.66,SE,144,0.0,17.0,76,0.00,,SHRA,0.16,VWS V14.01,2013-05-30 21:43:00,
2013-05-30 16:48:00,79.2,70.6,29.65,SW,232,6.0,17.0,75,0.00,,SHRA,0.16,VWS V14.01,2013-05-30 21:48:00,
2013-05-30 16:53:00,79.0,71.2,29.65,South,174,2.0,17.0,77,0.00,,SHRA,0.16,VWS V14.01,2013-05-30 21:53:00,
2013-05-30 16:58:00,78.8,71.0,29.65,SSE,165,0.0,17.0,77,0.00,,SHRA,0.16,VWS V14.01,2013-05-30 21:58:00,
2013-05-30 17:03:00,78.6,70.8,29.65,South,172,0.0,7.0,77,0.00,,OVC100,0.16,VWS V14.01,2013-05-30 22:03:00,
2013-05-30 17:08:00,78.5,71.1,29.65,South,178,5.0,7.0,78,0.00,,OVC100,0.16,VWS V14.01,2013-05-30 22:08:00,
2013-05-30 17:13:00,78.5,71.1,29.65,SSE,165,3.0,7.0,78,0.00,,OVC100,0.16,VWS V14.01,2013-05-30 22:13:00,
2013-05-30 17:18:00,78.3,71.3,29.65,South,185,2.0,7.0,79,0.00,,OVC100,0.16,VWS V14.01,2013-05-30 22:18:00,
2013-05-30 17:23:00,78.3,71.3,29.65,SSW,210,2.0,10.0,79,0.00,,OVC100,0.16,VWS V14.01,2013-05-30 22:23:00,
2013-05-30 17:28:00,75.4,66.5,29.65,SW,222,7.0,13.0,74,0.00,,OVC100,0.16,VWS V14.01,2013-05-30 22:28:00,
2013-05-30 17:33:00,72.1,68.0,29.68,West,267,2.0,13.0,87,0.00,,OVC100,0.16,VWS V14.01,2013-05-30 22:33:00,
2013-05-30 17:38:00,70.1,67.7,29.68,WNW,289,8.0,13.0,92,0.00,,OVC100,0.16,VWS V14.01,2013-05-30 22:38:00,
2013-05-30 17:44:00,69.3,68.7,29.68,North,1,5.0,14.0,98,0.00,,OVC100,0.16,VWS V14.01,2013-05-30 22:44:00,
2013-05-30 17:49:00,69.4,68.5,29.66,SSW,192,5.0,14.0,97,0.00,,OVC100,0.16,VWS V14.01,2013-05-30 22:49:00,
2013-05-30 17:54:00,69.4,69.1,29.66,ENE,62,0.0,14.0,99,0.00,,OVC100,0.16,VWS V14.01,2013-05-30 22:54:00,
2013-05-30 17:59:00,70.1,70.1,29.66,WSW,239,0.0,14.0,100,0.00,,OVC100,0.16,VWS V14.01,2013-05-30 22:59:00,
2013-05-30 18:04:00,71.1,71.1,29.65,East,82,1.0,5.0,100,0.00,,-RA,0.16,VWS V14.01,2013-05-30 23:04:00,
2013-05-30 18:09:00,71.8,71.8,29.65,East,80,3.0,5.0,100,0.00,,-RA,0.16,VWS V14.01,2013-05-30 23:09:00,
2013-05-30 18:14:00,72.5,72.5,29.65,ENE,75,0.0,5.0,100,0.00,,-RA,0.16,VWS V14.01,2013-05-30 23:14:00,
2013-05-30 18:19:00,72.3,72.3,29.66,ENE,75,0.0,5.0,100,0.00,,-RA,0.16,VWS V14.01,2013-05-30 23:19:00,
2013-05-30 18:24:00,72.3,71.7,29.66,ENE,75,0.0,5.0,98,0.00,,-RA,0.16,VWS V14.01,2013-05-30 23:24:00,
2013-05-30 18:29:00,72.5,71.6,29.66,ENE,76,2.0,7.0,97,0.00,,-RA,0.16,VWS V14.01,2013-05-30 23:29:00,
2013-05-30 18:34:00,72.5,71.3,29.66,East,79,0.0,7.0,96,0.00,,-RA,0.16,VWS V14.01,2013-05-30 23:34:00,
2013-05-30 18:39:00,72.5,71.3,29.66,East,79,0.0,7.0,96,0.00,,-RA,0.16,VWS V14.01,2013-05-30 23:39:00,
2013-05-30 18:44:00,72.3,71.1,29.67,East,79,0.0,7.0,96,0.00,,-RA,0.16,VWS V14.01,2013-05-30 23:44:00,
2013-05-30 18:49:00,72.1,70.9,29.67,East,79,0.0,7.0,96,0.00,,-RA,0.16,VWS V14.01,2013-05-30 23:49:00,
2013-05-30 18:54:00,72.3,71.1,29.67,East,79,2.0,7.0,96,0.00,,-RA,0.16,VWS V14.01,2013-05-30 23:54:00,
2013-05-30 18:59:00,72.3,70.8,29.67,East,80,5.0,7.0,95,0.00,,-RA,0.16,VWS V14.01,2013-05-30 23:59:00,
2013-05-30 19:00:00,72.3,70.8,29.67,ENE,76,3.0,7.0,95,0.00,,OVC041CB,0.16,VWS V14.01,2013-05-31 00:00:00,
2013-05-30 19:04:00,72.5,70.7,29.67,ENE,75,5.0,6.0,94,0.00,,SHRA,0.16,VWS V14.01,2013-05-31 00:04:00,
2013-05-30 19:09:00,72.5,71.0,29.67,ENE,72,2.0,6.0,95,0.00,,SHRA,0.16,VWS V14.01,2013-05-31 00:09:00,
2013-05-30 19:14:00,72.5,71.0,29.66,ENE,68,0.0,6.0,95,0.00,,SHRA,0.16,VWS V14.01,2013-05-31 00:14:00,
2013-05-30 19:20:00,72.7,71.2,29.66,ENE,78,2.0,6.0,95,0.00,,SHRA,0.16,VWS V14.01,2013-05-31 00:20:00,
2013-05-30 19:25:00,72.8,71.0,29.66,East,82,1.0,6.0,94,0.00,,SHRA,0.16,VWS V14.01,2013-05-31 00:25:00,
2013-05-30 19:30:00,73.5,71.7,29.66,East,86,0.0,6.0,94,0.00,,SHRA,0.16,VWS V14.01,2013-05-31 00:30:00,
2013-05-30 19:35:00,73.9,72.1,29.66,ENE,76,3.0,6.0,94,0.00,,SHRA,0.16,VWS V14.01,2013-05-31 00:35:00,
2013-05-30 19:40:00,74.0,71.8,29.66,East,83,0.0,6.0,93,0.00,,SHRA,0.16,VWS V14.01,2013-05-31 00:40:00,
2013-05-30 19:45:00,74.0,72.2,29.66,East,83,0.0,6.0,94,0.00,,SHRA,0.16,VWS V14.01,2013-05-31 00:45:00,
2013-05-30 19:50:00,74.2,72.4,29.66,SE,128,0.0,6.0,94,0.00,,SHRA,0.16,VWS V14.01,2013-05-31 00:50:00,
2013-05-30 19:55:00,74.4,72.6,29.66,NE,55,2.0,7.0,94,0.00,,SHRA,0.16,VWS V14.01,2013-05-31 00:55:00,
2013-05-30 20:00:00,74.9,73.1,29.67,East,79,2.0,7.0,94,0.00,,SHRA,0.16,VWS V14.01,2013-05-31 01:00:00,
2013-05-30 20:05:00,74.9,73.1,29.67,East,79,0.0,2.0,94,0.00,,,0.16,VWS V14.01,2013-05-31 01:05:00,
2013-05-30 20:10:00,74.6,72.8,29.67,East,79,1.0,2.0,94,0.00,,,0.16,VWS V14.01,2013-05-31 01:10:00,
2013-05-30 20:15:00,74.4,73.2,29.66,ENE,66,2.0,5.0,96,0.00,,,0.16,VWS V14.01,2013-05-31 01:15:00,
2013-05-30 20:20:00,74.4,73.2,29.66,NNW,340,6.0,12.0,96,0.00,,,0.16,VWS V14.01,2013-05-31 01:20:00,
2013-05-30 20:25:00,73.2,72.3,29.66,NNE,17,6.0,17.0,97,0.00,,,0.16,VWS V14.01,2013-05-31 01:25:00,
2013-05-30 20:30:00,72.7,72.4,29.69,North,350,6.0,17.0,99,0.00,,,0.16,VWS V14.01,2013-05-31 01:30:00,
2013-05-30 20:35:00,72.1,71.5,29.69,ENE,76,3.0,17.0,98,0.00,,,0.16,VWS V14.01,2013-05-31 01:35:00,
2013-05-30 20:40:00,72.3,72.0,29.69,East,89,7.0,17.0,99,0.00,,,0.16,VWS V14.01,2013-05-31 01:40:00,
2013-05-30 20:45:00,71.8,71.5,29.69,NE,41,0.0,17.0,99,0.00,,,0.16,VWS V14.01,2013-05-31 01:45:00,
2013-05-30 20:50:00,71.8,71.8,29.69,West,265,0.0,17.0,100,0.00,,,0.16,VWS V14.01,2013-05-31 01:50:00,
2013-05-30 20:56:00,71.6,71.6,29.69,West,265,0.0,17.0,100,0.00,,,0.16,VWS V14.01,2013-05-31 01:56:00,
2013-05-30 21:01:00,73.9,73.6,29.68,South,169,14.0,14.0,99,0.00,,BKN090,0.16,VWS V14.01,2013-05-31 02:01:00,
2013-05-30 21:06:00,74.6,72.1,29.68,SSW,205,10.0,14.0,92,0.00,,BKN090,0.16,VWS V14.01,2013-05-31 02:06:00,
2013-05-30 21:11:00,74.7,71.9,29.68,South,179,1.0,14.0,91,0.00,,BKN090,0.16,VWS V14.01,2013-05-31 02:11:00,
2013-05-30 21:16:00,74.7,72.2,29.68,SE,128,2.0,14.0,92,0.00,,BKN090,0.16,VWS V14.01,2013-05-31 02:16:00,
2013-05-30 21:21:00,74.4,71.9,29.68,ESE,120,5.0,14.0,92,0.00,,BKN090,0.16,VWS V14.01,2013-05-31 02:21:00,
2013-05-30 21:26:00,74.4,72.6,29.68,SE,128,2.0,14.0,94,0.00,,BKN090,0.16,VWS V14.01,2013-05-31 02:26:00,
2013-05-30 21:31:00,74.6,72.8,29.68,East,92,2.0,14.0,94,0.00,,BKN090,0.16,VWS V14.01,2013-05-31 02:31:00,
2013-05-30 21:36:00,74.6,72.8,29.68,SE,131,7.0,14.0,94,0.00,,BKN090,0.16,VWS V14.01,2013-05-31 02:36:00,
2013-05-30 21:41:00,74.2,72.7,29.68,East,99,5.0,14.0,95,0.00,,BKN090,0.16,VWS V14.01,2013-05-31 02:41:00,
2013-05-30 21:46:00,73.9,71.8,29.70,ESE,107,5.0,14.0,93,0.00,,BKN090,0.16,VWS V14.01,2013-05-31 02:46:00,
2013-05-30 21:51:00,73.7,71.6,29.70,SE,133,3.0,14.0,93,0.00,,BKN090,0.16,VWS V14.01,2013-05-31 02:51:00,
2013-05-30 21:56:00,73.3,71.5,29.70,East,83,2.0,14.0,94,0.00,,BKN090,0.16,VWS V14.01,2013-05-31 02:56:00,
2013-05-30 22:01:00,73.2,71.7,29.70,East,79,6.0,7.0,95,0.00,,SCT120,0.16,VWS V14.01,2013-05-31 03:01:00,
2013-05-30 22:06:00,73.0,71.8,29.70,East,85,6.0,10.0,96,0.00,,SCT120,0.16,VWS V14.01,2013-05-31 03:06:00,
2013-05-30 22:11:00,72.8,71.6,29.70,ESE,103,5.0,10.0,96,0.00,,SCT120,0.16,VWS V14.01,2013-05-31 03:11:00,
2013-05-30 22:16:00,72.8,71.0,29.70,ESE,103,5.0,10.0,94,0.00,,SCT120,0.16,VWS V14.01,2013-05-31 03:16:00,
2013-05-30 22:21:00,72.7,71.2,29.70,East,100,2.0,10.0,95,0.00,,SCT120,0.16,VWS V14.01,2013-05-31 03:21:00,
2013-05-30 22:26:00,72.7,71.2,29.70,ESE,107,5.0,10.0,95,0.01,,SCT120,0.17,VWS V14.01,2013-05-31 03:26:00,
2013-05-30 22:31:00,72.5,71.6,29.70,ESE,113,2.0,10.0,97,0.01,,SCT120,0.17,VWS V14.01,2013-05-31 03:31:00,
2013-05-30 22:36:00,72.5,71.3,29.70,ESE,102,5.0,10.0,96,0.01,,SCT120,0.17,VWS V14.01,2013-05-31 03:36:00,
2013-05-30 22:41:00,72.3,71.1,29.70,East,82,8.0,10.0,96,0.01,,SCT120,0.17,VWS V14.01,2013-05-31 03:41:00,
2013-05-30 22:46:00,72.1,70.9,29.71,East,95,2.0,10.0,96,0.01,,SCT120,0.17,VWS V14.01,2013-05-31 03:46:00,
2013-05-30 22:52:00,72.1,70.9,29.71,SE,127,6.0,10.0,96,0.01,,SCT120,0.17,VWS V14.01,2013-05-31 03:52:00,
2013-05-30 22:57:00,72.1,71.2,29.71,SSE,160,7.0,10.0,97,0.01,,SCT120,0.17,VWS V14.01,2013-05-31 03:57:00,
2013-05-30 23:00:00,72.0,71.1,29.70,ENE,76,2.0,10.0,97,0.01,,OVC041CB,0.17,VWS V14.01,2013-05-31 04:00:00,
2013-05-30 23:01:00,72.0,70.8,29.70,ESE,123,2.0,5.0,96,0.01,,FEW040,0.17,VWS V14.01,2013-05-31 04:01:00,
2013-05-30 23:03:00,72.0,71.1,29.70,ESE,116,5.0,7.0,97,0.01,,FEW040,0.17,VWS V14.01,2013-05-31 04:03:00,
2013-05-30 23:04:00,72.0,71.1,29.70,ESE,114,2.0,8.0,97,0.01,,FEW040,0.17,VWS V14.01,2013-05-31 04:04:00,
2013-05-30 23:08:00,72.0,71.1,29.70,ENE,64,5.0,10.0,97,0.01,,FEW040,0.17,VWS V14.01,2013-05-31 04:08:00,
2013-05-30 23:13:00,72.0,71.1,29.70,East,100,5.0,10.0,97,0.01,,FEW040,0.17,VWS V14.01,2013-05-31 04:13:00,
2013-05-30 23:18:00,71.8,70.6,29.70,East,97,5.0,10.0,96,0.01,,FEW040,0.17,VWS V14.01,2013-05-31 04:18:00,
2013-05-30 23:23:00,72.0,71.1,29.70,SE,124,1.0,13.0,97,0.01,,FEW040,0.17,VWS V14.01,2013-05-31 04:23:00,
2013-05-30 23:28:00,72.0,71.1,29.70,SSE,154,2.0,13.0,97,0.01,,FEW040,0.17,VWS V14.01,2013-05-31 04:28:00,
2013-05-30 23:33:00,72.0,71.1,29.70,East,89,2.0,13.0,97,0.01,,FEW040,0.17,VWS V14.01,2013-05-31 04:33:00,
2013-05-30 23:38:00,72.0,71.4,29.70,ESE,104,2.0,13.0,98,0.01,,FEW040,0.17,VWS V14.01,2013-05-31 04:38:00,
2013-05-30 23:43:00,72.0,71.7,29.70,SE,126,3.0,13.0,99,0.01,,FEW040,0.17,VWS V14.01,2013-05-31 04:43:00,
2013-05-30 23:48:00,72.0,71.4,29.69,ESE,113,1.0,13.0,98,0.01,,FEW040,0.17,VWS V14.01,2013-05-31 04:48:00,
2013-05-30 23:53:00,72.1,71.5,29.69,ESE,116,3.0,13.0,98,0.01,,FEW040,0.17,VWS V14.01,2013-05-31 04:53:00,
2013-05-30 23:59:00,72.1,70.9,29.69,SSE,167,0.0,13.0,96,0.01,,FEW040,0.17,VWS V14.01,2013-05-31 04:59:00,